West McLean, Virginia
Current Conditions -  °F | °C
As of 9:52 AM on Monday 22 Dec 2014 (Local Time) from KDCA Reporting Station
Overcast Overcast  
Wind Chill: 32°   Ceiling: 4300
Heat Index: 37°   Visibility: 8mi
Dew Point: 27°   Wind: 6mph
Humidity: 67%   Direction: 40°NE
Pressure: 30.33"   Gusts: NA
Location:  38.93°N, 77.18°W
Report Text: KDCA 221452Z 04005KT 8SM OVC043 03/M03 A3033 RMK AO2 SLP268 T00281028 53007
Loading
Personal Weather Stations






























Interactive Weather Map New forecast layout! Learn more

10-Day Weather Forecast

Advertisements
Track Severe Weather on mobile